sensor_id;sensor_type;location;lat;lon;timestamp;P1;durP1;ratioP1;P2;durP2;ratioP2
58774;SDS011;44545;47.480;19.024;2023-05-16T03:12:31;0.73;;;0.65;;
58774;SDS011;44545;47.480;19.024;2023-05-16T03:15:33;1.23;;;1.10;;
58774;SDS011;44545;47.480;19.024;2023-05-16T03:18:36;0.75;;;0.70;;
58774;SDS011;44545;47.480;19.024;2023-05-16T03:21:39;1.37;;;0.68;;
58774;SDS011;44545;47.480;19.024;2023-05-16T03:24:41;1.80;;;1.17;;
58774;SDS011;44545;47.480;19.024;2023-05-16T03:27:45;4.25;;;1.52;;
58774;SDS011;44545;47.480;19.024;2023-05-16T03:30:47;1.27;;;0.98;;
58774;SDS011;44545;47.480;19.024;2023-05-16T03:33:50;1.42;;;0.90;;
58774;SDS011;44545;47.480;19.024;2023-05-16T03:36:52;1.55;;;0.98;;
58774;SDS011;44545;47.480;19.024;2023-05-16T03:39:55;1.37;;;1.27;;
58774;SDS011;44545;47.480;19.024;2023-05-16T03:42:57;1.15;;;0.80;;
58774;SDS011;44545;47.480;19.024;2023-05-16T03:46:00;1.23;;;0.85;;
58774;SDS011;44545;47.480;19.024;2023-05-16T03:49:02;1.40;;;1.10;;
58774;SDS011;44545;47.480;19.024;2023-05-16T03:52:05;1.70;;;1.10;;
58774;SDS011;44545;47.480;19.024;2023-05-16T03:55:08;1.85;;;1.30;;
58774;SDS011;44545;47.480;19.024;2023-05-16T03:58:11;1.50;;;1.10;;
58774;SDS011;44545;47.480;19.024;2023-05-16T04:01:13;1.33;;;1.10;;
58774;SDS011;44545;47.480;19.024;2023-05-16T04:04:15;1.70;;;0.98;;
58774;SDS011;44545;47.480;19.024;2023-05-16T04:07:18;1.95;;;1.15;;
58774;SDS011;44545;47.480;19.024;2023-05-16T04:10:23;1.98;;;1.25;;
58774;SDS011;44545;47.480;19.024;2023-05-16T04:13:25;1.60;;;1.00;;
58774;SDS011;44545;47.480;19.024;2023-05-16T04:16:28;2.95;;;1.90;;
58774;SDS011;44545;47.480;19.024;2023-05-16T04:19:30;3.40;;;1.52;;
58774;SDS011;44545;47.480;19.024;2023-05-16T04:22:32;1.70;;;1.40;;
58774;SDS011;44545;47.480;19.024;2023-05-16T04:25:35;1.52;;;0.90;;
58774;SDS011;44545;47.480;19.024;2023-05-16T04:28:37;3.53;;;1.48;;
58774;SDS011;44545;47.480;19.024;2023-05-16T04:31:39;1.83;;;1.05;;
58774;SDS011;44545;47.480;19.024;2023-05-16T04:34:42;2.70;;;1.75;;
58774;SDS011;44545;47.480;19.024;2023-05-16T04:37:47;1.77;;;1.00;;
58774;SDS011;44545;47.480;19.024;2023-05-16T04:40:51;1.20;;;0.75;;
58774;SDS011;44545;47.480;19.024;2023-05-16T04:43:53;1.30;;;0.90;;
58774;SDS011;44545;47.480;19.024;2023-05-16T04:46:56;1.85;;;1.00;;
58774;SDS011;44545;47.480;19.024;2023-05-16T04:49:58;1.60;;;1.00;;
58774;SDS011;44545;47.480;19.024;2023-05-16T04:53:01;1.80;;;1.00;;
58774;SDS011;44545;47.480;19.024;2023-05-16T04:56:04;5.07;;;1.23;;
58774;SDS011;44545;47.480;19.024;2023-05-16T04:59:07;2.22;;;1.30;;
58774;SDS011;44545;47.480;19.024;2023-05-16T05:02:09;2.30;;;1.02;;
58774;SDS011;44545;47.480;19.024;2023-05-16T05:05:12;1.25;;;0.60;;
58774;SDS011;44545;47.480;19.024;2023-05-16T05:08:14;2.22;;;1.42;;
58774;SDS011;44545;47.480;19.024;2023-05-16T05:11:17;1.25;;;0.95;;
58774;SDS011;44545;47.480;19.024;2023-05-16T05:14:20;1.55;;;1.00;;
58774;SDS011;44545;47.480;19.024;2023-05-16T05:17:22;1.87;;;1.27;;
58774;SDS011;44545;47.480;19.024;2023-05-16T05:20:25;2.35;;;1.30;;
58774;SDS011;44545;47.480;19.024;2023-05-16T05:23:27;2.12;;;0.98;;
58774;SDS011;44545;47.480;19.024;2023-05-16T05:26:30;2.42;;;1.50;;
58774;SDS011;44545;47.480;19.024;2023-05-16T05:29:33;1.40;;;1.00;;
58774;SDS011;44545;47.480;19.024;2023-05-16T05:32:35;3.00;;;1.17;;
58774;SDS011;44545;47.480;19.024;2023-05-16T05:35:38;2.42;;;0.93;;
58774;SDS011;44545;47.480;19.024;2023-05-16T05:38:40;1.87;;;1.27;;
58774;SDS011;44545;47.480;19.024;2023-05-16T05:41:42;1.98;;;1.20;;
58774;SDS011;44545;47.480;19.024;2023-05-16T05:44:46;5.20;;;1.75;;
58774;SDS011;44545;47.480;19.024;2023-05-16T05:47:48;5.90;;;1.37;;
58774;SDS011;44545;47.480;19.024;2023-05-16T05:50:50;1.70;;;0.98;;
58774;SDS011;44545;47.480;19.024;2023-05-16T05:53:54;1.90;;;1.17;;
58774;SDS011;44545;47.480;19.024;2023-05-16T05:56:56;2.78;;;1.62;;
58774;SDS011;44545;47.480;19.024;2023-05-16T05:59:59;1.83;;;0.98;;
58774;SDS011;44545;47.480;19.024;2023-05-16T06:03:01;8.50;;;1.73;;
58774;SDS011;44545;47.480;19.024;2023-05-16T06:06:05;1.85;;;1.20;;
58774;SDS011;44545;47.480;19.024;2023-05-16T06:09:08;2.17;;;1.30;;
58774;SDS011;44545;47.480;19.024;2023-05-16T06:12:10;1.37;;;0.93;;
58774;SDS011;44545;47.480;19.024;2023-05-16T06:15:12;1.70;;;1.10;;
58774;SDS011;44545;47.480;19.024;2023-05-16T06:18:15;1.75;;;1.25;;
58774;SDS011;44545;47.480;19.024;2023-05-16T06:21:17;2.47;;;1.08;;
58774;SDS011;44545;47.480;19.024;2023-05-16T06:24:20;1.55;;;0.85;;
58774;SDS011;44545;47.480;19.024;2023-05-16T06:27:24;5.40;;;1.60;;
58774;SDS011;44545;47.480;19.024;2023-05-16T06:30:26;1.10;;;0.82;;
58774;SDS011;44545;47.480;19.024;2023-05-16T06:33:29;3.22;;;1.20;;
58774;SDS011;44545;47.480;19.024;2023-05-16T06:36:31;1.83;;;1.00;;
58774;SDS011;44545;47.480;19.024;2023-05-16T06:39:33;1.67;;;0.98;;
58774;SDS011;44545;47.480;19.024;2023-05-16T06:42:36;2.10;;;1.00;;
58774;SDS011;44545;47.480;19.024;2023-05-16T06:45:39;1.77;;;1.02;;
58774;SDS011;44545;47.480;19.024;2023-05-16T06:48:42;2.33;;;0.98;;
58774;SDS011;44545;47.480;19.024;2023-05-16T06:51:44;1.33;;;1.05;;
58774;SDS011;44545;47.480;19.024;2023-05-16T06:54:47;2.67;;;0.80;;
58774;SDS011;44545;47.480;19.024;2023-05-16T06:57:49;2.42;;;1.15;;
58774;SDS011;44545;47.480;19.024;2023-05-16T07:00:52;2.40;;;1.20;;
58774;SDS011;44545;47.480;19.024;2023-05-16T07:03:54;4.62;;;1.37;;
58774;SDS011;44545;47.480;19.024;2023-05-16T07:06:57;3.70;;;1.27;;
58774;SDS011;44545;47.480;19.024;2023-05-16T07:09:59;2.25;;;1.25;;
58774;SDS011;44545;47.480;19.024;2023-05-16T07:13:02;5.28;;;1.25;;
58774;SDS011;44545;47.480;19.024;2023-05-16T07:16:05;3.47;;;1.98;;
58774;SDS011;44545;47.480;19.024;2023-05-16T07:19:09;2.65;;;1.35;;
58774;SDS011;44545;47.480;19.024;2023-05-16T07:22:12;3.87;;;2.08;;
58774;SDS011;44545;47.480;19.024;2023-05-16T07:25:14;2.12;;;1.25;;
58774;SDS011;44545;47.480;19.024;2023-05-16T07:28:17;1.45;;;1.02;;
58774;SDS011;44545;47.480;19.024;2023-05-16T07:31:20;3.90;;;1.73;;
58774;SDS011;44545;47.480;19.024;2023-05-16T07:34:23;1.50;;;1.12;;
58774;SDS011;44545;47.480;19.024;2023-05-16T07:37:26;3.15;;;1.35;;
58774;SDS011;44545;47.480;19.024;2023-05-16T07:40:29;2.45;;;1.50;;
58774;SDS011;44545;47.480;19.024;2023-05-16T07:43:32;3.83;;;1.80;;
58774;SDS011;44545;47.480;19.024;2023-05-16T07:46:37;2.65;;;1.95;;
58774;SDS011;44545;47.480;19.024;2023-05-16T07:49:40;4.90;;;2.08;;
58774;SDS011;44545;47.480;19.024;2023-05-16T07:52:43;3.28;;;2.10;;
58774;SDS011;44545;47.480;19.024;2023-05-16T07:55:46;4.55;;;1.90;;
58774;SDS011;44545;47.480;19.024;2023-05-16T07:58:49;4.00;;;2.87;;
58774;SDS011;44545;47.480;19.024;2023-05-16T08:01:51;2.83;;;2.15;;
58774;SDS011;44545;47.480;19.024;2023-05-16T08:04:55;3.58;;;2.50;;
58774;SDS011;44545;47.480;19.024;2023-05-16T08:07:58;3.90;;;2.17;;
58774;SDS011;44545;47.480;19.024;2023-05-16T08:11:01;3.42;;;2.15;;
58774;SDS011;44545;47.480;19.024;2023-05-16T08:14:03;7.97;;;4.18;;
58774;SDS011;44545;47.480;19.024;2023-05-16T08:17:05;7.28;;;2.70;;
58774;SDS011;44545;47.480;19.024;2023-05-16T08:20:08;5.18;;;2.85;;
58774;SDS011;44545;47.480;19.024;2023-05-16T08:23:11;4.78;;;2.45;;
58774;SDS011;44545;47.480;19.024;2023-05-16T08:26:13;2.95;;;2.12;;
58774;SDS011;44545;47.480;19.024;2023-05-16T08:29:15;4.50;;;2.45;;
58774;SDS011;44545;47.480;19.024;2023-05-16T08:32:18;3.35;;;2.08;;
58774;SDS011;44545;47.480;19.024;2023-05-16T08:35:20;3.83;;;2.53;;
58774;SDS011;44545;47.480;19.024;2023-05-16T08:38:23;3.80;;;2.30;;
58774;SDS011;44545;47.480;19.024;2023-05-16T08:41:25;4.32;;;2.65;;
58774;SDS011;44545;47.480;19.024;2023-05-16T08:44:27;5.03;;;2.80;;
58774;SDS011;44545;47.480;19.024;2023-05-16T08:47:31;4.82;;;3.00;;
58774;SDS011;44545;47.480;19.024;2023-05-16T08:50:35;6.45;;;3.05;;
58774;SDS011;44545;47.480;19.024;2023-05-16T08:53:39;5.53;;;2.87;;
58774;SDS011;44545;47.480;19.024;2023-05-16T08:56:50;11.48;;;3.58;;
58774;SDS011;44545;47.480;19.024;2023-05-16T08:59:55;3.90;;;2.72;;
58774;SDS011;44545;47.480;19.024;2023-05-16T09:03:00;5.53;;;2.67;;
58774;SDS011;44545;47.480;19.024;2023-05-16T09:06:04;5.43;;;2.95;;
58774;SDS011;44545;47.480;19.024;2023-05-16T09:09:09;3.28;;;2.37;;
58774;SDS011;44545;47.480;19.024;2023-05-16T09:12:14;7.97;;;2.50;;
58774;SDS011;44545;47.480;19.024;2023-05-16T09:15:17;4.18;;;1.83;;
58774;SDS011;44545;47.480;19.024;2023-05-16T09:18:21;4.05;;;3.30;;
58774;SDS011;44545;47.480;19.024;2023-05-16T09:21:25;4.53;;;2.35;;
58774;SDS011;44545;47.480;19.024;2023-05-16T09:27:32;2.72;;;1.58;;
58774;SDS011;44545;47.480;19.024;2023-05-16T09:30:34;3.03;;;2.10;;
58774;SDS011;44545;47.480;19.024;2023-05-16T09:33:38;2.45;;;1.83;;
58774;SDS011;44545;47.480;19.024;2023-05-16T09:36:43;3.97;;;2.93;;
58774;SDS011;44545;47.480;19.024;2023-05-16T09:39:46;3.83;;;2.35;;
58774;SDS011;44545;47.480;19.024;2023-05-16T09:43:03;6.03;;;2.83;;
58774;SDS011;44545;47.480;19.024;2023-05-16T09:46:06;4.28;;;2.33;;
58774;SDS011;44545;47.480;19.024;2023-05-16T09:49:12;5.85;;;2.58;;
58774;SDS011;44545;47.480;19.024;2023-05-16T09:52:15;3.03;;;2.25;;
58774;SDS011;44545;47.480;19.024;2023-05-16T09:55:17;5.50;;;2.35;;
58774;SDS011;44545;47.480;19.024;2023-05-16T09:58:20;4.87;;;2.58;;
58774;SDS011;44545;47.480;19.024;2023-05-16T10:01:29;6.72;;;3.30;;
58774;SDS011;44545;47.480;19.024;2023-05-16T10:04:33;6.10;;;3.62;;
58774;SDS011;44545;47.480;19.024;2023-05-16T10:07:39;5.05;;;3.05;;
58774;SDS011;44545;47.480;19.024;2023-05-16T10:10:45;5.75;;;2.97;;
58774;SDS011;44545;47.480;19.024;2023-05-16T10:13:48;4.00;;;2.65;;
58774;SDS011;44545;47.480;19.024;2023-05-16T10:16:54;6.68;;;3.20;;
58774;SDS011;44545;47.480;19.024;2023-05-16T10:20:05;8.18;;;3.08;;
58774;SDS011;44545;47.480;19.024;2023-05-16T10:23:09;5.60;;;3.05;;
58774;SDS011;44545;47.480;19.024;2023-05-16T10:26:23;5.00;;;2.90;;
58774;SDS011;44545;47.480;19.024;2023-05-16T10:29:27;6.25;;;2.55;;
58774;SDS011;44545;47.480;19.024;2023-05-16T10:32:34;4.53;;;2.70;;
58774;SDS011;44545;47.480;19.024;2023-05-16T10:35:38;4.40;;;2.87;;
58774;SDS011;44545;47.480;19.024;2023-05-16T10:38:41;5.75;;;2.28;;
58774;SDS011;44545;47.480;19.024;2023-05-16T10:41:46;4.25;;;2.28;;
58774;SDS011;44545;47.480;19.024;2023-05-16T10:44:51;7.78;;;3.20;;
58774;SDS011;44545;47.480;19.024;2023-05-16T10:48:06;6.03;;;2.45;;
58774;SDS011;44545;47.480;19.024;2023-05-16T10:54:24;9.38;;;3.00;;
58774;SDS011;44545;47.480;19.024;2023-05-16T10:57:36;5.10;;;2.72;;
58774;SDS011;44545;47.480;19.024;2023-05-16T11:00:39;8.25;;;3.40;;
58774;SDS011;44545;47.480;19.024;2023-05-16T11:07:05;6.03;;;2.65;;
58774;SDS011;44545;47.480;19.024;2023-05-16T11:10:08;6.45;;;3.42;;
58774;SDS011;44545;47.480;19.024;2023-05-16T11:13:16;7.15;;;2.85;;
58774;SDS011;44545;47.480;19.024;2023-05-16T11:16:25;6.35;;;2.87;;
58774;SDS011;44545;47.480;19.024;2023-05-16T11:19:29;4.95;;;3.10;;
58774;SDS011;44545;47.480;19.024;2023-05-16T11:22:37;7.47;;;3.73;;
58774;SDS011;44545;47.480;19.024;2023-05-16T11:25:44;7.10;;;3.58;;
58774;SDS011;44545;47.480;19.024;2023-05-16T11:28:50;4.40;;;3.12;;
58774;SDS011;44545;47.480;19.024;2023-05-16T11:31:56;5.28;;;3.12;;
58774;SDS011;44545;47.480;19.024;2023-05-16T11:35:00;4.67;;;3.47;;
58774;SDS011;44545;47.480;19.024;2023-05-16T11:38:04;4.93;;;3.25;;
58774;SDS011;44545;47.480;19.024;2023-05-16T11:41:07;7.43;;;4.43;;
58774;SDS011;44545;47.480;19.024;2023-05-16T11:44:11;8.13;;;4.80;;
58774;SDS011;44545;47.480;19.024;2023-05-16T11:47:13;10.30;;;4.22;;
58774;SDS011;44545;47.480;19.024;2023-05-16T11:50:17;7.93;;;4.15;;
58774;SDS011;44545;47.480;19.024;2023-05-16T11:53:21;6.43;;;3.42;;
58774;SDS011;44545;47.480;19.024;2023-05-16T11:56:24;5.75;;;3.65;;
58774;SDS011;44545;47.480;19.024;2023-05-16T11:59:28;4.12;;;2.58;;
58774;SDS011;44545;47.480;19.024;2023-05-16T12:02:31;5.40;;;2.70;;
58774;SDS011;44545;47.480;19.024;2023-05-16T12:05:33;6.85;;;2.80;;
58774;SDS011;44545;47.480;19.024;2023-05-16T12:08:37;7.62;;;2.90;;
58774;SDS011;44545;47.480;19.024;2023-05-16T12:11:40;4.57;;;2.33;;
58774;SDS011;44545;47.480;19.024;2023-05-16T12:14:45;4.68;;;2.58;;
58774;SDS011;44545;47.480;19.024;2023-05-16T12:17:47;7.45;;;3.20;;
58774;SDS011;44545;47.480;19.024;2023-05-16T12:20:50;10.18;;;3.28;;
58774;SDS011;44545;47.480;19.024;2023-05-16T12:23:56;6.32;;;3.65;;
58774;SDS011;44545;47.480;19.024;2023-05-16T12:26:59;12.32;;;3.72;;
58774;SDS011;44545;47.480;19.024;2023-05-16T12:30:02;4.90;;;2.37;;
58774;SDS011;44545;47.480;19.024;2023-05-16T12:33:09;4.07;;;2.60;;
58774;SDS011;44545;47.480;19.024;2023-05-16T12:36:13;3.75;;;2.35;;
58774;SDS011;44545;47.480;19.024;2023-05-16T12:39:20;4.90;;;2.97;;
58774;SDS011;44545;47.480;19.024;2023-05-16T12:42:25;9.57;;;2.78;;
58774;SDS011;44545;47.480;19.024;2023-05-16T12:45:28;5.30;;;2.37;;
58774;SDS011;44545;47.480;19.024;2023-05-16T12:48:31;5.00;;;2.28;;
58774;SDS011;44545;47.480;19.024;2023-05-16T12:51:37;6.20;;;2.03;;
58774;SDS011;44545;47.480;19.024;2023-05-16T12:54:40;4.20;;;2.22;;
58774;SDS011;44545;47.480;19.024;2023-05-16T12:57:42;7.15;;;2.40;;
58774;SDS011;44545;47.480;19.024;2023-05-16T13:00:46;4.28;;;2.15;;
58774;SDS011;44545;47.480;19.024;2023-05-16T13:03:49;3.60;;;2.22;;
58774;SDS011;44545;47.480;19.024;2023-05-16T13:06:52;7.80;;;2.90;;
58774;SDS011;44545;47.480;19.024;2023-05-16T13:09:57;4.23;;;1.97;;
58774;SDS011;44545;47.480;19.024;2023-05-16T13:12:59;6.32;;;3.15;;
58774;SDS011;44545;47.480;19.024;2023-05-16T13:16:02;3.80;;;2.50;;
58774;SDS011;44545;47.480;19.024;2023-05-16T13:19:05;3.83;;;2.35;;
58774;SDS011;44545;47.480;19.024;2023-05-16T13:22:08;5.05;;;3.15;;
58774;SDS011;44545;47.480;19.024;2023-05-16T13:25:11;4.70;;;2.85;;
58774;SDS011;44545;47.480;19.024;2023-05-16T13:28:13;4.72;;;2.50;;
58774;SDS011;44545;47.480;19.024;2023-05-16T13:31:16;6.05;;;3.15;;
58774;SDS011;44545;47.480;19.024;2023-05-16T13:34:18;10.20;;;2.67;;
58774;SDS011;44545;47.480;19.024;2023-05-16T13:37:20;7.95;;;3.03;;
58774;SDS011;44545;47.480;19.024;2023-05-16T13:40:25;4.18;;;2.60;;
58774;SDS011;44545;47.480;19.024;2023-05-16T13:43:28;11.32;;;3.20;;
58774;SDS011;44545;47.480;19.024;2023-05-16T13:46:33;6.47;;;3.00;;
58774;SDS011;44545;47.480;19.024;2023-05-16T13:49:36;9.45;;;2.85;;
58774;SDS011;44545;47.480;19.024;2023-05-16T13:52:39;6.65;;;3.10;;
58774;SDS011;44545;47.480;19.024;2023-05-16T13:55:42;5.75;;;2.45;;
58774;SDS011;44545;47.480;19.024;2023-05-16T13:58:44;5.82;;;2.65;;
58774;SDS011;44545;47.480;19.024;2023-05-16T14:01:53;5.20;;;2.67;;
58774;SDS011;44545;47.480;19.024;2023-05-16T14:04:57;5.60;;;3.00;;
58774;SDS011;44545;47.480;19.024;2023-05-16T14:07:59;7.35;;;2.35;;
58774;SDS011;44545;47.480;19.024;2023-05-16T14:11:02;5.68;;;2.42;;
58774;SDS011;44545;47.480;19.024;2023-05-16T14:14:04;6.50;;;2.28;;
58774;SDS011;44545;47.480;19.024;2023-05-16T14:17:07;9.52;;;2.72;;
58774;SDS011;44545;47.480;19.024;2023-05-16T14:20:09;5.05;;;2.47;;
58774;SDS011;44545;47.480;19.024;2023-05-16T14:23:12;4.82;;;2.90;;
58774;SDS011;44545;47.480;19.024;2023-05-16T14:26:15;5.35;;;2.03;;
58774;SDS011;44545;47.480;19.024;2023-05-16T14:29:17;7.10;;;2.60;;
58774;SDS011;44545;47.480;19.024;2023-05-16T14:32:19;7.68;;;2.42;;
58774;SDS011;44545;47.480;19.024;2023-05-16T14:35:22;8.80;;;3.25;;
58774;SDS011;44545;47.480;19.024;2023-05-16T14:38:24;6.45;;;2.42;;
58774;SDS011;44545;47.480;19.024;2023-05-16T14:41:27;4.97;;;2.53;;
58774;SDS011;44545;47.480;19.024;2023-05-16T14:44:29;8.02;;;2.97;;
58774;SDS011;44545;47.480;19.024;2023-05-16T14:47:32;5.47;;;3.05;;
58774;SDS011;44545;47.480;19.024;2023-05-16T14:50:34;5.05;;;2.55;;
58774;SDS011;44545;47.480;19.024;2023-05-16T14:53:37;3.60;;;2.05;;
58774;SDS011;44545;47.480;19.024;2023-05-16T14:56:39;10.75;;;3.20;;
58774;SDS011;44545;47.480;19.024;2023-05-16T14:59:41;4.87;;;2.42;;
58774;SDS011;44545;47.480;19.024;2023-05-16T15:02:44;6.60;;;2.80;;
58774;SDS011;44545;47.480;19.024;2023-05-16T15:05:47;3.75;;;2.37;;
58774;SDS011;44545;47.480;19.024;2023-05-16T15:08:49;3.72;;;2.20;;
58774;SDS011;44545;47.480;19.024;2023-05-16T15:11:52;4.85;;;3.10;;
58774;SDS011;44545;47.480;19.024;2023-05-16T15:14:54;4.68;;;2.47;;
58774;SDS011;44545;47.480;19.024;2023-05-16T15:17:56;3.58;;;2.10;;
58774;SDS011;44545;47.480;19.024;2023-05-16T15:20:59;6.18;;;3.00;;
